Thunder radar more information blitzortung!


Radar de pluja more information rain snow radar


Visita la nostra xarxa de llocs de meteo:

Template documentation
and downloads

And another site



Wind From: 11-12-2017 11:00 Until: 14:59 warning for: Wind Level: Yellow info button

Pagina Historial Weather Underground text

Diari Resum Octubre 2, 2017 Unitats:  Mètric    Imperial   Tant
« Previous Dia
SegĂźent Dia »
Diari Setmana Mensual Anual Personalitzada
  Maxima: Minima: Media:
Temperatura: 24.1 °C 15.9 °C 20.2 °C
Punt de rosada: 16.9 °C 14.4 °C 15.5 °C
Humitat: 92 % 60 % 75 %
Wind Speed: 16.7 km/h 0.0 km/h 4.1 km/h
RĂ fegues de vent: 16.7 km/h - -
Vent:- - SSE
Pression baro: 1023.9 hPa 1021.9 hPa -
Precipitacions: 0.0 mm    
Historical Graphs
 
 
Dades de taula per Octubre 2, 2017
Temps Temperatura Punt de rosada Pression baro Vent Wind Speed RĂ fegues de vent Humitat Rainfall Rate (Hourly)
00:00 16.3 °C 15.0 °C 1022.9 hPa Calm     92 % 0.0 mm
00:01 16.9 °C 14.9 °C 1023.9 hPa Calm     88 % 0.0 mm
00:06 16.9 °C 14.9 °C 1023.9 hPa Calm     88 % 0.0 mm
00:10 16.2 °C 14.9 °C 1022.9 hPa Calm     92 % 0.0 mm
00:11 16.9 °C 14.9 °C 1023.9 hPa Calm     88 % 0.0 mm
00:16 16.9 °C 14.9 °C 1023.9 hPa Calm     88 % 0.0 mm
00:20 16.1 °C 14.6 °C 1022.9 hPa Calm     91 % 0.0 mm
00:21 16.9 °C 14.9 °C 1023.9 hPa Calm     88 % 0.0 mm
00:26 16.9 °C 14.9 °C 1023.9 hPa Calm     88 % 0.0 mm
00:30 16.0 °C 14.6 °C 1022.9 hPa SSE 1.6 km/h 3.2 km/h 91 % 0.0 mm
00:31 16.9 °C 15.1 °C 1023.9 hPa Calm     89 % 0.0 mm
00:32 16.9 °C 15.1 °C 1023.9 hPa Calm     89 % 0.0 mm
00:37 16.9 °C 15.1 °C 1023.9 hPa Calm     89 % 0.0 mm
00:40 16.0 °C 14.6 °C 1022.9 hPa SW 1.6 km/h 3.2 km/h 91 % 0.0 mm
00:50 16.0 °C 14.6 °C 1022.9 hPa Calm     91 % 0.0 mm
01:00 15.9 °C 14.4 °C 1022.9 hPa Calm   3.2 km/h 91 % 0.0 mm
01:10 16.0 °C 14.7 °C 1022.9 hPa Calm   3.2 km/h 92 % 0.0 mm
01:20 16.0 °C 14.7 °C 1022.9 hPa Calm     92 % 0.0 mm
01:30 16.1 °C 14.8 °C 1022.9 hPa Calm     92 % 0.0 mm
01:40 16.2 °C 14.9 °C 1022.9 hPa Calm     92 % 0.0 mm
01:50 16.2 °C 14.9 °C 1022.9 hPa Calm     92 % 0.0 mm
02:00 16.3 °C 15.0 °C 1022.9 hPa Calm     92 % 0.0 mm
02:10 16.3 °C 15.0 °C 1022.9 hPa Calm     92 % 0.0 mm
02:20 16.2 °C 14.9 °C 1022.9 hPa Calm     92 % 0.0 mm
02:30 16.2 °C 14.9 °C 1022.9 hPa Calm     92 % 0.0 mm
02:50 16.1 °C 14.6 °C 1022.9 hPa SW 1.6 km/h 3.2 km/h 91 % 0.0 mm
03:00 16.1 °C 14.6 °C 1022.9 hPa Calm   1.6 km/h 91 % 0.0 mm
03:10 16.1 °C 14.8 °C 1022.9 hPa Calm     92 % 0.0 mm
03:20 16.2 °C 14.9 °C 1022.9 hPa Calm   1.6 km/h 92 % 0.0 mm
03:30 16.2 °C 14.9 °C 1022.9 hPa Calm   1.6 km/h 92 % 0.0 mm
03:40 16.3 °C 15.0 °C 1023.9 hPa Calm   1.6 km/h 92 % 0.0 mm
03:50 16.3 °C 15.0 °C 1023.9 hPa Calm     92 % 0.0 mm
04:00 16.3 °C 15.0 °C 1022.9 hPa WSW 1.6 km/h 3.2 km/h 92 % 0.0 mm
04:10 16.4 °C 15.1 °C 1023.9 hPa Calm   1.6 km/h 92 % 0.0 mm
04:20 16.6 °C 15.3 °C 1023.9 hPa Calm   1.6 km/h 92 % 0.0 mm
04:30 16.8 °C 15.5 °C 1023.9 hPa Calm     92 % 0.0 mm
04:40 17.0 °C 15.5 °C 1022.9 hPa Calm   1.6 km/h 91 % 0.0 mm
04:50 17.1 °C 15.4 °C 1022.9 hPa SW 1.6 km/h 1.6 km/h 90 % 0.0 mm
05:00 17.5 °C 15.8 °C 1023.9 hPa SW 1.6 km/h 3.2 km/h 90 % 0.0 mm
05:10 17.8 °C 15.9 °C 1023.9 hPa Calm   1.6 km/h 89 % 0.0 mm
05:20 18.1 °C 15.9 °C 1023.9 hPa WSW 1.6 km/h 3.2 km/h 87 % 0.0 mm
05:30 18.3 °C 15.9 °C 1023.9 hPa Calm   3.2 km/h 86 % 0.0 mm
05:40 18.6 °C 16.0 °C 1023.9 hPa ESE 3.2 km/h 3.2 km/h 85 % 0.0 mm
05:50 19.0 °C 16.2 °C 1023.9 hPa East 1.6 km/h 3.2 km/h 84 % 0.0 mm
10:55 19.2 °C 15.8 °C 1022.9 hPa ENE 5.6 km/h 5.6 km/h 81 % 0.0 mm
11:00 19.5 °C 16.2 °C 1023.9 hPa ENE 3.9 km/h 3.9 km/h 81 % 0.0 mm
11:05 19.9 °C 16.6 °C 1023.9 hPa ENE 7.4 km/h 7.4 km/h 81 % 0.0 mm
11:10 20.1 °C 16.3 °C 1023.9 hPa ENE 5.6 km/h 5.6 km/h 79 % 0.0 mm
11:15 20.5 °C 16.6 °C 1023.9 hPa ENE 9.3 km/h 9.3 km/h 78 % 0.0 mm
11:16 20.5 °C 16.6 °C 1023.9 hPa NE 9.3 km/h 9.3 km/h 78 % 0.0 mm
11:21 20.6 °C 16.4 °C 1023.9 hPa ENE 3.9 km/h 3.9 km/h 77 % 0.0 mm
11:26 20.6 °C 16.2 °C 1023.9 hPa East 4.2 km/h 4.2 km/h 76 % 0.0 mm
11:31 20.5 °C 16.1 °C 1023.9 hPa ENE 5.6 km/h 5.6 km/h 76 % 0.0 mm
11:36 20.6 °C 16.0 °C 1023.9 hPa ENE 5.6 km/h 5.6 km/h 75 % 0.0 mm
11:41 20.6 °C 15.8 °C 1023.9 hPa ENE 3.7 km/h 3.7 km/h 74 % 0.0 mm
11:46 20.5 °C 15.5 °C 1023.9 hPa East 7.4 km/h 7.4 km/h 73 % 0.0 mm
11:51 20.7 °C 15.9 °C 1023.9 hPa ENE 6.9 km/h 6.9 km/h 74 % 0.0 mm
11:56 20.7 °C 15.7 °C 1023.9 hPa ESE 3.7 km/h 3.9 km/h 73 % 0.0 mm
12:01 21.0 °C 16.2 °C 1023.9 hPa SE 7.4 km/h 7.4 km/h 74 % 0.0 mm
12:06 21.2 °C 16.2 °C 1023.9 hPa ENE 5.6 km/h 5.6 km/h 73 % 0.0 mm
12:11 21.6 °C 16.6 °C 1023.9 hPa NE 7.9 km/h 7.9 km/h 73 % 0.0 mm
12:16 21.6 °C 16.3 °C 1023.9 hPa ESE 4.2 km/h 4.2 km/h 72 % 0.0 mm
12:21 21.6 °C 16.1 °C 1023.9 hPa ENE 5.6 km/h 5.6 km/h 71 % 0.0 mm
12:26 21.5 °C 15.8 °C 1023.9 hPa ESE 3.9 km/h 3.9 km/h 70 % 0.0 mm
12:31 21.5 °C 16.0 °C 1023.9 hPa ENE 5.6 km/h 5.6 km/h 71 % 0.0 mm
12:36 21.5 °C 16.0 °C 1023.9 hPa East 5.6 km/h 5.6 km/h 71 % 0.0 mm
12:41 21.7 °C 16.4 °C 1023.9 hPa SW 3.7 km/h 3.7 km/h 72 % 0.0 mm
12:46 21.8 °C 16.3 °C 1023.9 hPa West 3.7 km/h 3.7 km/h 71 % 0.0 mm
12:51 22.1 °C 16.2 °C 1023.9 hPa WSW 1.9 km/h 1.9 km/h 69 % 0.0 mm
12:56 22.3 °C 16.6 °C 1023.9 hPa WSW 3.7 km/h 3.7 km/h 70 % 0.0 mm
13:01 22.5 °C 16.5 °C 1023.9 hPa SSE 3.7 km/h 3.7 km/h 69 % 0.0 mm
13:06 22.3 °C 16.1 °C 1023.9 hPa ENE 7.4 km/h 7.4 km/h 68 % 0.0 mm
13:11 22.2 °C 16.0 °C 1023.9 hPa ESE 3.7 km/h 3.7 km/h 68 % 0.0 mm
13:16 22.0 °C 15.3 °C 1023.9 hPa ESE 5.6 km/h 5.6 km/h 66 % 0.0 mm
13:21 22.5 °C 16.1 °C 1023.9 hPa South 7.4 km/h 7.4 km/h 67 % 0.0 mm
13:26 22.7 °C 16.0 °C 1023.9 hPa SW 3.7 km/h 3.7 km/h 66 % 0.0 mm
13:31 23.0 °C 16.3 °C 1023.9 hPa SE 5.0 km/h 5.0 km/h 66 % 0.0 mm
13:36 23.2 °C 16.3 °C 1023.9 hPa ESE 9.3 km/h 9.3 km/h 65 % 0.0 mm
13:41 23.1 °C 15.9 °C 1023.9 hPa ENE 3.7 km/h 3.9 km/h 64 % 0.0 mm
13:46 23.6 °C 15.9 °C 1023.9 hPa ESE 6.9 km/h 6.9 km/h 62 % 0.0 mm
13:51 23.9 °C 16.9 °C 1023.9 hPa NNW 3.7 km/h 3.7 km/h 65 % 0.0 mm
13:56 23.7 °C 16.2 °C 1023.9 hPa NNE 4.2 km/h 4.2 km/h 63 % 0.0 mm
14:01 23.2 °C 16.0 °C 1023.9 hPa NNE 7.4 km/h 7.4 km/h 64 % 0.0 mm
14:06 23.2 °C 16.0 °C 1023.9 hPa ESE 5.6 km/h 5.6 km/h 64 % 0.0 mm
14:11 23.6 °C 16.2 °C 1023.9 hPa SSW 2.3 km/h 2.3 km/h 63 % 0.0 mm
14:16 23.4 °C 15.7 °C 1023.9 hPa NE 7.4 km/h 7.4 km/h 62 % 0.0 mm
14:21 23.4 °C 16.4 °C 1023.9 hPa NW 5.6 km/h 5.6 km/h 65 % 0.0 mm
14:26 23.6 °C 16.4 °C 1023.9 hPa NNW 4.7 km/h 4.7 km/h 64 % 0.0 mm
14:31 23.7 °C 16.2 °C 1023.9 hPa WNW 3.7 km/h 3.7 km/h 63 % 0.0 mm
14:32 23.7 °C 16.2 °C 1023.9 hPa ESE 3.7 km/h 3.7 km/h 63 % 0.0 mm
14:37 23.5 °C 15.8 °C 1023.9 hPa ENE 3.7 km/h 3.7 km/h 62 % 0.0 mm
14:42 23.3 °C 15.6 °C 1023.9 hPa SSE 5.6 km/h 5.6 km/h 62 % 0.0 mm
14:47 23.5 °C 16.1 °C 1023.9 hPa West 1.9 km/h   63 % 0.0 mm
14:52 23.7 °C 16.0 °C 1023.9 hPa ENE 3.9 km/h 3.9 km/h 62 % 0.0 mm
14:57 23.8 °C 16.1 °C 1023.9 hPa NE 3.2 km/h   62 % 0.0 mm
15:02 24.1 °C 16.4 °C 1023.9 hPa SSW 3.7 km/h 3.7 km/h 62 % 0.0 mm
15:07 23.8 °C 15.8 °C 1023.9 hPa SSE 5.6 km/h 5.6 km/h 61 % 0.0 mm
15:12 23.6 °C 15.4 °C 1023.9 hPa East 7.4 km/h 7.4 km/h 60 % 0.0 mm
15:17 23.5 °C 15.3 °C 1023.9 hPa ESE 6.1 km/h 6.1 km/h 60 % 0.0 mm
15:22 23.5 °C 15.6 °C 1023.9 hPa East 3.7 km/h 3.7 km/h 61 % 0.0 mm
15:27 23.5 °C 15.6 °C 1023.9 hPa ESE 3.7 km/h 3.7 km/h 61 % 0.0 mm
15:32 23.5 °C 15.6 °C 1022.9 hPa NE 3.7 km/h 3.7 km/h 61 % 0.0 mm
15:37 23.6 °C 15.6 °C 1022.9 hPa NNE 3.7 km/h 3.7 km/h 61 % 0.0 mm
15:42 23.5 °C 15.6 °C 1022.9 hPa East 5.6 km/h 5.6 km/h 61 % 0.0 mm
15:47 23.5 °C 15.6 °C 1022.9 hPa NE 3.7 km/h 4.2 km/h 61 % 0.0 mm
15:52 23.8 °C 16.1 °C 1022.9 hPa ESE 3.9 km/h 3.9 km/h 62 % 0.0 mm
15:57 23.9 °C 16.2 °C 1022.9 hPa ENE 5.6 km/h 5.6 km/h 62 % 0.0 mm
16:02 23.7 °C 16.0 °C 1022.9 hPa East 6.1 km/h 6.1 km/h 62 % 0.0 mm
16:07 23.6 °C 15.6 °C 1022.9 hPa ESE 7.4 km/h 7.4 km/h 61 % 0.0 mm
16:12 23.6 °C 15.9 °C 1022.9 hPa East 9.3 km/h 9.3 km/h 62 % 0.0 mm
16:17 23.8 °C 15.8 °C 1022.9 hPa ESE 9.3 km/h 9.3 km/h 61 % 0.0 mm
16:22 24.0 °C 16.0 °C 1022.9 hPa East 5.6 km/h 6.9 km/h 61 % 0.0 mm
16:27 23.7 °C 15.7 °C 1022.9 hPa East 13.0 km/h 13.0 km/h 61 % 0.0 mm
16:32 23.5 °C 15.6 °C 1021.9 hPa East 13.0 km/h 13.0 km/h 61 % 0.0 mm
16:37 23.5 °C 15.6 °C 1021.9 hPa ENE 9.3 km/h 9.3 km/h 61 % 0.0 mm
16:42 23.5 °C 15.6 °C 1021.9 hPa East 9.5 km/h 9.5 km/h 61 % 0.0 mm
16:47 23.4 °C 15.4 °C 1022.9 hPa East 11.1 km/h 11.1 km/h 61 % 0.0 mm
16:52 23.2 °C 15.3 °C 1022.9 hPa NE 16.7 km/h 16.7 km/h 61 % 0.0 mm
16:57 23.1 °C 15.4 °C 1022.9 hPa East 13.0 km/h 13.0 km/h 62 % 0.0 mm
17:02 23.1 °C 15.4 °C 1022.9 hPa ESE 5.6 km/h 6.4 km/h 62 % 0.0 mm
17:07 23.0 °C 15.3 °C 1022.9 hPa ESE 16.7 km/h 16.7 km/h 62 % 0.0 mm
17:12 22.8 °C 15.1 °C 1022.9 hPa ESE 13.0 km/h 13.0 km/h 62 % 0.0 mm
17:17 22.9 °C 15.5 °C 1022.9 hPa ESE 9.3 km/h 9.3 km/h 63 % 0.0 mm
17:22 22.8 °C 15.4 °C 1022.9 hPa ESE 9.3 km/h 9.5 km/h 63 % 0.0 mm
17:27 22.7 °C 15.3 °C 1022.9 hPa SE 13.0 km/h 13.0 km/h 63 % 0.0 mm
17:32 22.5 °C 15.1 °C 1022.9 hPa ESE 13.0 km/h 13.0 km/h 63 % 0.0 mm
17:37 22.6 °C 15.4 °C 1022.9 hPa ESE 11.1 km/h 11.1 km/h 64 % 0.0 mm
17:42 22.5 °C 15.3 °C 1022.9 hPa ESE 12.2 km/h 12.2 km/h 64 % 0.0 mm
17:47 22.4 °C 15.3 °C 1022.9 hPa SE 9.7 km/h 9.7 km/h 64 % 0.0 mm
17:52 22.4 °C 15.5 °C 1022.9 hPa ESE 7.4 km/h 7.4 km/h 65 % 0.0 mm
17:57 22.3 °C 15.4 °C 1022.9 hPa SSE 12.2 km/h 12.2 km/h 65 % 0.0 mm
18:02 22.2 °C 15.6 °C 1022.9 hPa ESE 8.7 km/h 8.7 km/h 66 % 0.0 mm
18:07 22.2 °C 15.6 °C 1022.9 hPa ENE 7.4 km/h 7.4 km/h 66 % 0.0 mm
18:12 22.2 °C 15.6 °C 1022.9 hPa ENE 7.4 km/h 7.4 km/h 66 % 0.0 mm
18:17 22.2 °C 15.8 °C 1022.9 hPa ENE 9.3 km/h 9.3 km/h 67 % 0.0 mm
18:22 22.2 °C 15.8 °C 1022.9 hPa East 7.4 km/h 7.4 km/h 67 % 0.0 mm
18:27 22.2 °C 15.8 °C 1022.9 hPa ESE 6.1 km/h 6.1 km/h 67 % 0.0 mm
18:32 22.1 °C 15.7 °C 1022.9 hPa SSE 7.4 km/h 7.4 km/h 67 % 0.0 mm
18:37 22.2 °C 15.8 °C 1022.9 hPa South 3.9 km/h 3.9 km/h 67 % 0.0 mm
18:42 22.2 °C 15.8 °C 1022.9 hPa SSE 4.7 km/h 4.7 km/h 67 % 0.0 mm
18:47 22.2 °C 15.8 °C 1022.9 hPa West 1.9 km/h   67 % 0.0 mm
18:52 22.2 °C 15.8 °C 1022.9 hPa WSW 1.9 km/h 2.3 km/h 67 % 0.0 mm
18:57 22.1 °C 15.7 °C 1022.9 hPa SSW 5.6 km/h 5.6 km/h 67 % 0.0 mm
19:02 22.1 °C 15.7 °C 1023.9 hPa WSW 3.9 km/h 3.9 km/h 67 % 0.0 mm
19:07 22.0 °C 15.8 °C 1023.9 hPa SSW 5.8 km/h 5.8 km/h 68 % 0.0 mm
19:12 21.8 °C 15.8 °C 1023.9 hPa SW 7.4 km/h 7.4 km/h 69 % 0.0 mm
19:17 21.7 °C 15.8 °C 1022.9 hPa SSW 9.3 km/h 9.3 km/h 69 % 0.0 mm
19:22 21.6 °C 15.9 °C 1022.9 hPa SW 9.3 km/h 9.3 km/h 70 % 0.0 mm
19:27 21.5 °C 15.8 °C 1022.9 hPa SW 5.6 km/h 5.6 km/h 70 % 0.0 mm
19:30 18.9 °C 15.2 °C 1023.9 hPa Calm     79 % 0.0 mm
19:32 21.4 °C 15.7 °C 1023.9 hPa SW 5.6 km/h 5.6 km/h 70 % 0.0 mm
19:37 21.2 °C 15.5 °C 1023.9 hPa SW 13.0 km/h 13.0 km/h 70 % 0.0 mm
19:40 18.8 °C 15.1 °C 1022.9 hPa Calm     79 % 0.0 mm
19:42 21.2 °C 15.5 °C 1023.9 hPa SW 5.6 km/h 5.6 km/h 70 % 0.0 mm
19:47 21.0 °C 15.6 °C 1023.9 hPa SSW 6.1 km/h 6.1 km/h 71 % 0.0 mm
19:50 18.7 °C 15.0 °C 1022.9 hPa Calm   1.6 km/h 79 % 0.0 mm
19:52 20.9 °C 15.4 °C 1023.9 hPa SSW 5.6 km/h 5.6 km/h 71 % 0.0 mm
19:57 20.8 °C 15.3 °C 1023.9 hPa SW 7.4 km/h 7.4 km/h 71 % 0.0 mm
20:00 18.5 °C 15.0 °C 1023.9 hPa Calm     80 % 0.0 mm
20:02 20.7 °C 15.4 °C 1023.9 hPa SW 7.4 km/h 7.4 km/h 72 % 0.0 mm
20:07 20.6 °C 15.4 °C 1023.9 hPa WSW 7.4 km/h 7.4 km/h 72 % 0.0 mm
20:10 18.4 °C 14.9 °C 1023.9 hPa Calm     80 % 0.0 mm
20:12 20.6 °C 15.4 °C 1023.9 hPa SSW 5.0 km/h 5.0 km/h 72 % 0.0 mm
20:17 20.5 °C 15.3 °C 1023.9 hPa SW 5.3 km/h 5.3 km/h 72 % 0.0 mm
20:20 18.3 °C 14.8 °C 1023.9 hPa Calm     80 % 0.0 mm
20:22 20.4 °C 15.4 °C 1023.9 hPa South 5.6 km/h 5.6 km/h 73 % 0.0 mm
20:27 20.4 °C 15.4 °C 1023.9 hPa SW 9.3 km/h 9.3 km/h 73 % 0.0 mm
20:30 18.3 °C 15.0 °C 1023.9 hPa Calm   1.6 km/h 81 % 0.0 mm
20:32 20.4 °C 15.4 °C 1023.9 hPa SW 7.4 km/h 7.4 km/h 73 % 0.0 mm
20:37 20.3 °C 15.5 °C 1023.9 hPa SW 4.2 km/h 4.2 km/h 74 % 0.0 mm
20:40 18.1 °C 14.8 °C 1023.9 hPa Calm     81 % 0.0 mm
20:42 20.3 °C 15.5 °C 1023.9 hPa WSW 5.6 km/h 5.6 km/h 74 % 0.0 mm
20:47 20.3 °C 15.5 °C 1023.9 hPa WSW 3.9 km/h 3.9 km/h 74 % 0.0 mm
20:50 18.1 °C 15.0 °C 1023.9 hPa Calm     82 % 0.0 mm
20:52 20.2 °C 15.4 °C 1023.9 hPa SW 5.6 km/h 5.6 km/h 74 % 0.0 mm
20:57 20.2 °C 15.6 °C 1023.9 hPa SW 5.6 km/h 5.6 km/h 75 % 0.0 mm
21:00 18.1 °C 15.0 °C 1023.9 hPa Calm     82 % 0.0 mm
21:02 20.1 °C 15.6 °C 1023.9 hPa SW 3.7 km/h 3.7 km/h 75 % 0.0 mm
21:07 20.0 °C 15.4 °C 1023.9 hPa SW 3.9 km/h 3.9 km/h 75 % 0.0 mm
21:10 18.0 °C 14.9 °C 1022.9 hPa Calm   1.6 km/h 82 % 0.0 mm
21:12 20.0 °C 15.4 °C 1023.9 hPa WSW 3.7 km/h 4.7 km/h 75 % 0.0 mm
21:17 20.0 °C 15.7 °C 1023.9 hPa SW 3.7 km/h 3.7 km/h 76 % 0.0 mm
21:20 17.8 °C 14.7 °C 1022.9 hPa Calm     82 % 0.0 mm
21:22 19.9 °C 15.6 °C 1023.9 hPa WSW 3.7 km/h 3.7 km/h 76 % 0.0 mm
21:27 19.8 °C 15.4 °C 1023.9 hPa WSW 3.7 km/h 3.7 km/h 76 % 0.0 mm
21:30 17.8 °C 14.9 °C 1022.9 hPa Calm     83 % 0.0 mm
21:32 19.8 °C 15.4 °C 1023.9 hPa West 5.6 km/h 5.6 km/h 76 % 0.0 mm
21:37 19.7 °C 15.6 °C 1023.9 hPa SW 3.7 km/h 3.7 km/h 77 % 0.0 mm
21:40 17.8 °C 14.9 °C 1022.9 hPa Calm     83 % 0.0 mm
21:42 19.7 °C 15.6 °C 1023.9 hPa SSW 3.7 km/h 3.7 km/h 77 % 0.0 mm
21:47 19.7 °C 15.6 °C 1023.9 hPa WSW 3.7 km/h 3.7 km/h 77 % 0.0 mm
21:50 17.7 °C 14.8 °C 1022.9 hPa Calm     83 % 0.0 mm
21:52 19.6 °C 15.4 °C 1023.9 hPa West 3.7 km/h   77 % 0.0 mm
21:57 19.6 °C 15.4 °C 1023.9 hPa West 3.7 km/h   77 % 0.0 mm
22:00 17.7 °C 14.9 °C 1022.9 hPa Calm     84 % 0.0 mm
22:02 19.6 °C 15.4 °C 1023.9 hPa SW 3.7 km/h 3.7 km/h 77 % 0.0 mm
22:07 19.6 °C 15.4 °C 1023.9 hPa WSW 3.7 km/h 3.7 km/h 77 % 0.0 mm
22:10 17.6 °C 14.7 °C 1022.9 hPa Calm     83 % 0.0 mm
22:12 19.5 °C 15.3 °C 1023.9 hPa SW 3.7 km/h 3.7 km/h 77 % 0.0 mm
22:17 19.5 °C 15.3 °C 1022.9 hPa SW 3.7 km/h 3.7 km/h 77 % 0.0 mm
22:20 17.8 °C 15.1 °C 1022.9 hPa Calm     84 % 0.0 mm
22:22 19.5 °C 15.3 °C 1022.9 hPa WSW 2.6 km/h 2.6 km/h 77 % 0.0 mm
22:27 19.4 °C 15.3 °C 1022.9 hPa SW 3.7 km/h 3.7 km/h 77 % 0.0 mm
22:30 18.1 °C 15.2 °C 1022.9 hPa Calm     83 % 0.0 mm
22:32 19.4 °C 15.3 °C 1023.9 hPa SW 5.6 km/h 5.6 km/h 77 % 0.0 mm
22:37 19.4 °C 15.3 °C 1023.9 hPa SW 1.9 km/h 1.9 km/h 77 % 0.0 mm
22:40 18.2 °C 15.3 °C 1022.9 hPa Calm     83 % 0.0 mm
22:42 19.4 °C 15.3 °C 1023.9 hPa SW 3.7 km/h 3.7 km/h 77 % 0.0 mm
22:47 19.4 °C 15.3 °C 1022.9 hPa SW 1.9 km/h 2.3 km/h 77 % 0.0 mm
22:50 18.3 °C 15.2 °C 1022.9 hPa Calm     82 % 0.0 mm
22:52 19.4 °C 15.3 °C 1022.9 hPa SW 1.9 km/h 1.9 km/h 77 % 0.0 mm
22:57 19.4 °C 15.3 °C 1022.9 hPa SW 1.9 km/h 1.9 km/h 77 % 0.0 mm
23:00 18.4 °C 15.3 °C 1021.9 hPa Calm     82 % 0.0 mm
23:02 19.4 °C 15.3 °C 1023.9 hPa SW 1.9 km/h   77 % 0.0 mm
23:07 19.5 °C 15.3 °C 1023.9 hPa West 3.7 km/h 3.7 km/h 77 % 0.0 mm
23:10 18.3 °C 15.2 °C 1021.9 hPa Calm     82 % 0.0 mm
23:12 19.5 °C 15.3 °C 1023.9 hPa WSW 5.6 km/h 5.6 km/h 77 % 0.0 mm
23:17 19.5 °C 15.3 °C 1023.9 hPa WSW 3.7 km/h 3.7 km/h 77 % 0.0 mm
23:20 18.1 °C 15.0 °C 1021.9 hPa Calm     82 % 0.0 mm
23:22 19.5 °C 15.3 °C 1023.9 hPa WSW 3.7 km/h 3.7 km/h 77 % 0.0 mm
23:27 19.5 °C 15.3 °C 1023.9 hPa WSW 3.7 km/h 3.7 km/h 77 % 0.0 mm
23:30 17.8 °C 14.9 °C 1021.9 hPa Calm     83 % 0.0 mm
23:32 19.4 °C 15.3 °C 1023.9 hPa WSW 3.7 km/h 3.7 km/h 77 % 0.0 mm
23:37 19.4 °C 15.3 °C 1023.9 hPa Calm     77 % 0.0 mm
23:40 17.5 °C 14.6 °C 1021.9 hPa Calm     83 % 0.0 mm
23:42 19.3 °C 15.2 °C 1023.9 hPa Calm     77 % 0.0 mm
23:47 19.3 °C 15.2 °C 1023.9 hPa SW 3.2 km/h   77 % 0.0 mm
23:50 17.3 °C 14.6 °C 1021.9 hPa Calm     84 % 0.0 mm
23:52 19.3 °C 15.2 °C 1023.9 hPa WSW 2.6 km/h 2.6 km/h 77 % 0.0 mm
23:57 19.2 °C 15.1 °C 1023.9 hPa WSW 1.9 km/h 1.9 km/h 77 % 0.0 mm
Meteo Sesrovires
Elogis d' Weather Underground - 3.75 mb

Guio original per  Jim McMurry - jmcmurry@mwt.net Adaptat per a la plantilla per  Wim van der Kuil - Leuven-Template.eu

Trobareu la nostra informacio del temps tambe a:

Weather Underground

AWEKAS